createdAt,value
2019-02-17T00:00:58.336Z,43.57
2019-02-17T00:03:05.441Z,50.27
2019-02-17T00:05:12.582Z,49.60
2019-02-17T00:07:19.772Z,56.03
2019-02-17T00:09:26.809Z,54.73
2019-02-17T00:11:34.173Z,58.07
2019-02-17T00:13:41.346Z,51.53
2019-02-17T00:15:48.111Z,63.17
2019-02-17T00:17:55.172Z,61.20
2019-02-17T00:20:02.969Z,54.53
2019-02-17T00:22:10.728Z,52.77
2019-02-17T00:24:17.865Z,56.30
2019-02-17T00:26:24.807Z,54.40
2019-02-17T00:28:31.700Z,46.70
2019-02-17T00:30:38.871Z,50.20
2019-02-17T00:32:45.677Z,48.47
2019-02-17T00:34:52.764Z,55.27
2019-02-17T00:36:59.771Z,51.10
2019-02-17T00:39:08.383Z,50.70
2019-02-17T00:41:15.541Z,47.10
2019-02-17T00:43:22.632Z,44.47
2019-02-17T00:45:29.587Z,44.80
2019-02-17T00:47:36.654Z,49.00
2019-02-17T00:49:43.519Z,42.80
2019-02-17T00:51:50.586Z,48.97
2019-02-17T00:53:57.804Z,49.17
2019-02-17T00:56:04.866Z,44.27
2019-02-17T00:58:11.974Z,43.43
2019-02-17T01:00:19.074Z,47.37
2019-02-17T01:02:29.682Z,44.97
2019-02-17T01:04:37.554Z,41.43
2019-02-17T01:06:44.615Z,43.20
2019-02-17T01:08:51.542Z,44.47
2019-02-17T01:10:59.364Z,48.70
2019-02-17T01:13:06.501Z,41.53
2019-02-17T01:15:14.511Z,42.27
2019-02-17T01:17:21.000Z,51.40
2019-02-17T01:19:28.376Z,47.47
2019-02-17T01:21:35.651Z,46.23
2019-02-17T01:23:43.099Z,42.33
2019-02-17T01:25:50.002Z,41.07
2019-02-17T01:27:56.690Z,41.30
2019-02-17T01:30:03.473Z,43.13
2019-02-17T01:32:10.426Z,45.33
2019-02-17T01:34:18.089Z,47.33
2019-02-17T01:36:25.433Z,45.93
2019-02-17T01:38:32.074Z,43.23
2019-02-17T01:40:38.844Z,44.10
2019-02-17T01:42:45.719Z,45.73
2019-02-17T01:44:53.149Z,44.37
2019-02-17T01:47:00.377Z,42.77
2019-02-17T01:49:07.276Z,43.50
2019-02-17T01:51:14.039Z,43.20
2019-02-17T01:53:20.941Z,45.17
2019-02-17T01:55:28.043Z,39.47
2019-02-17T01:57:35.080Z,44.07
2019-02-17T01:59:41.867Z,43.23
2019-02-17T02:01:50.322Z,38.27
2019-02-17T02:03:57.335Z,45.93
2019-02-17T02:06:06.868Z,46.70
2019-02-17T02:08:15.139Z,40.97
2019-02-17T02:10:22.348Z,45.43
2019-02-17T02:12:29.507Z,41.13
2019-02-17T02:14:36.751Z,42.63
2019-02-17T02:16:44.416Z,45.67
2019-02-17T02:18:52.264Z,45.10
2019-02-17T02:20:59.495Z,41.43
2019-02-17T02:23:06.318Z,44.17
2019-02-17T02:25:13.869Z,42.60
2019-02-17T02:27:21.641Z,38.77
2019-02-17T02:29:40.413Z,39.43
2019-02-17T02:31:39.014Z,37.23
2019-02-17T02:33:46.057Z,47.27
2019-02-17T02:35:52.789Z,40.67
2019-02-17T02:38:00.335Z,38.07
2019-02-17T02:40:08.714Z,37.97
2019-02-17T02:42:15.547Z,38.33
2019-02-17T02:44:22.508Z,44.10
2019-02-17T02:46:29.941Z,39.23
2019-02-17T02:48:37.052Z,38.03
2019-02-17T02:50:43.866Z,43.87
2019-02-17T02:52:50.756Z,34.47
2019-02-17T02:54:57.686Z,35.40
2019-02-17T02:57:04.576Z,32.10
2019-02-17T02:59:12.784Z,32.37
2019-02-17T03:01:20.169Z,35.57
2019-02-17T03:03:27.544Z,36.20
2019-02-17T03:05:34.897Z,36.23
2019-02-17T03:07:42.114Z,40.03
2019-02-17T03:09:49.485Z,35.43
2019-02-17T03:11:56.443Z,37.23
2019-02-17T03:14:03.290Z,39.10
2019-02-17T03:16:10.346Z,36.63
2019-02-17T03:18:17.082Z,37.33
2019-02-17T03:20:24.605Z,32.60
2019-02-17T03:22:31.417Z,34.20
2019-02-17T03:24:38.229Z,37.03
2019-02-17T03:26:45.669Z,35.10
2019-02-17T03:28:52.587Z,38.00
2019-02-17T03:30:59.682Z,40.47
2019-02-17T03:33:06.641Z,33.40
2019-02-17T03:35:13.471Z,36.53
2019-02-17T03:37:20.479Z,30.50
2019-02-17T03:39:27.605Z,32.73
2019-02-17T03:41:35.337Z,32.47
2019-02-17T03:43:48.187Z,34.27
2019-02-17T03:46:00.727Z,26.57
2019-02-17T03:48:07.493Z,31.90
2019-02-17T03:50:14.795Z,28.93
2019-02-17T03:52:22.756Z,33.10
2019-02-17T03:54:30.104Z,28.43
2019-02-17T03:56:38.484Z,36.90
2019-02-17T03:58:45.840Z,29.23
2019-02-17T04:00:53.381Z,32.23
2019-02-17T04:03:00.957Z,29.77
2019-02-17T04:05:08.768Z,37.60
2019-02-17T04:07:16.272Z,27.13
2019-02-17T04:09:25.102Z,29.67
2019-02-17T04:11:32.109Z,29.93
2019-02-17T04:13:40.277Z,30.30
2019-02-17T04:15:47.773Z,39.53
2019-02-17T04:17:55.214Z,32.20
2019-02-17T04:20:04.028Z,39.30
2019-02-17T04:22:11.224Z,38.50
2019-02-17T04:24:18.844Z,33.87
2019-02-17T04:26:26.470Z,29.80
2019-02-17T04:28:33.792Z,31.83
2019-02-17T04:30:40.855Z,30.80
2019-02-17T04:32:48.313Z,32.87
2019-02-17T04:34:55.332Z,32.07
2019-02-17T04:37:02.526Z,29.10
2019-02-17T04:39:10.007Z,33.97
2019-02-17T04:41:17.048Z,32.67
2019-02-17T04:43:24.449Z,34.97
2019-02-17T04:45:31.787Z,35.93
2019-02-17T04:47:39.538Z,34.13
2019-02-17T04:49:47.098Z,36.07
2019-02-17T04:51:54.253Z,33.27
2019-02-17T04:54:01.403Z,28.47
2019-02-17T04:56:08.648Z,29.47
2019-02-17T04:58:15.567Z,33.80
2019-02-17T05:00:22.655Z,33.07
2019-02-17T05:02:50.217Z,30.87
2019-02-17T05:04:57.182Z,34.67
2019-02-17T05:07:04.515Z,24.10
2019-02-17T05:09:11.608Z,35.90
2019-02-17T05:11:18.474Z,29.93
2019-02-17T05:13:25.819Z,37.13
2019-02-17T05:15:33.212Z,33.47
2019-02-17T05:17:40.118Z,34.83
2019-02-17T05:19:46.976Z,33.40
2019-02-17T05:21:54.124Z,34.93
2019-02-17T05:24:00.956Z,35.47
2019-02-17T05:26:07.839Z,44.10
2019-02-17T05:28:15.168Z,43.27
2019-02-17T05:30:21.974Z,45.87
2019-02-17T05:32:28.823Z,48.43
2019-02-17T05:34:36.806Z,41.37
2019-02-17T05:36:43.833Z,35.30
2019-02-17T05:38:51.185Z,32.03
2019-02-17T05:40:58.208Z,33.03
2019-02-17T05:43:05.094Z,26.87
2019-02-17T05:45:11.950Z,28.67
2019-02-17T05:47:18.739Z,25.93
2019-02-17T05:49:26.514Z,42.13
2019-02-17T05:51:34.028Z,39.70
2019-02-17T05:53:41.315Z,44.00
2019-02-17T05:55:48.724Z,38.30
2019-02-17T05:57:55.562Z,37.60
2019-02-17T06:00:02.598Z,35.77
2019-02-17T06:02:09.688Z,40.27
2019-02-17T06:04:16.881Z,29.90
2019-02-17T06:06:24.663Z,32.27
2019-02-17T06:08:31.592Z,26.90
2019-02-17T06:10:38.987Z,28.83
2019-02-17T06:12:45.893Z,31.40
2019-02-17T06:14:53.163Z,25.47
2019-02-17T06:17:00.573Z,30.03
2019-02-17T06:19:07.644Z,34.47
2019-02-17T06:21:14.763Z,32.50
2019-02-17T06:23:22.091Z,27.47
2019-02-17T06:25:29.039Z,32.33
2019-02-17T06:27:36.163Z,30.40
2019-02-17T06:29:43.216Z,34.40
2019-02-17T06:31:50.169Z,31.93
2019-02-17T06:33:57.288Z,33.80
2019-02-17T06:36:04.592Z,31.83
2019-02-17T06:38:11.358Z,29.80
2019-02-17T06:40:18.940Z,31.57
2019-02-17T06:42:25.930Z,23.43
2019-02-17T06:44:32.845Z,31.33
2019-02-17T06:46:41.161Z,32.53
2019-02-17T06:48:48.171Z,38.70
2019-02-17T06:50:55.194Z,34.87
2019-02-17T06:53:02.324Z,32.33
2019-02-17T06:55:14.780Z,33.37
2019-02-17T06:57:23.296Z,29.87
2019-02-17T06:59:30.688Z,31.43
2019-02-17T07:01:37.865Z,32.00
2019-02-17T07:03:45.242Z,28.47
2019-02-17T07:05:54.166Z,33.43
2019-02-17T07:08:01.466Z,31.73
2019-02-17T07:10:08.545Z,35.30
2019-02-17T07:12:15.621Z,33.30
2019-02-17T07:14:23.086Z,36.67
2019-02-17T07:16:29.908Z,31.33
2019-02-17T07:18:37.237Z,37.00
2019-02-17T07:20:44.345Z,34.23
2019-02-17T07:22:52.006Z,67.30
2019-02-17T07:24:59.216Z,46.10
2019-02-17T07:27:06.097Z,40.77
2019-02-17T07:29:13.279Z,43.13
2019-02-17T07:31:22.422Z,35.63
2019-02-17T07:33:28.930Z,34.03
2019-02-17T07:35:37.208Z,35.10
2019-02-17T07:37:44.557Z,36.87
2019-02-17T07:39:51.753Z,37.33
2019-02-17T07:41:58.504Z,39.67
2019-02-17T07:44:05.335Z,37.00
2019-02-17T07:46:13.034Z,31.83
2019-02-17T07:48:20.566Z,35.67
2019-02-17T07:50:27.445Z,33.30
2019-02-17T07:52:34.528Z,34.87
2019-02-17T07:54:43.541Z,29.27
2019-02-17T07:56:50.565Z,31.93
2019-02-17T07:58:57.606Z,31.33
2019-02-17T08:01:07.202Z,31.67
2019-02-17T08:03:15.797Z,31.67
2019-02-17T08:05:22.663Z,23.97
2019-02-17T08:07:29.721Z,27.97
2019-02-17T08:09:37.109Z,23.03
2019-02-17T08:11:48.286Z,32.90
2019-02-17T08:13:57.186Z,29.37
2019-02-17T08:16:04.561Z,30.13
2019-02-17T08:18:11.617Z,29.37
2019-02-17T08:20:18.818Z,32.83
2019-02-17T08:22:25.633Z,26.60
2019-02-17T08:24:32.464Z,30.10
2019-02-17T08:26:39.947Z,36.73
2019-02-17T08:28:48.309Z,29.97
2019-02-17T08:30:55.191Z,26.40
2019-02-17T08:33:04.116Z,26.87
2019-02-17T08:35:12.276Z,33.53
2019-02-17T08:37:19.068Z,27.93
2019-02-17T08:39:25.939Z,28.90
2019-02-17T08:41:33.700Z,24.43
2019-02-17T08:43:41.848Z,22.70
2019-02-17T08:45:48.816Z,29.17
2019-02-17T08:47:56.076Z,31.27
2019-02-17T08:50:05.740Z,24.27
2019-02-17T08:52:12.623Z,29.00
2019-02-17T08:54:19.543Z,26.90
2019-02-17T08:56:26.564Z,38.97
2019-02-17T08:58:33.742Z,31.07
2019-02-17T09:00:41.704Z,27.73
2019-02-17T09:02:48.818Z,29.23
2019-02-17T09:04:55.815Z,25.47
2019-02-17T09:07:02.985Z,27.30
2019-02-17T09:09:10.778Z,27.37
2019-02-17T09:11:18.179Z,28.33
2019-02-17T09:13:25.481Z,28.40
2019-02-17T09:15:32.340Z,23.73
2019-02-17T09:17:39.571Z,31.77
2019-02-17T09:19:46.522Z,35.77
2019-02-17T09:21:53.713Z,33.40
2019-02-17T09:24:01.069Z,35.47
2019-02-17T09:26:08.504Z,27.90
2019-02-17T09:28:15.734Z,29.87
2019-02-17T09:30:22.922Z,27.07
2019-02-17T09:32:30.139Z,34.27
2019-02-17T09:34:37.100Z,32.90
2019-02-17T09:36:44.372Z,36.97
2019-02-17T09:38:51.542Z,36.53
2019-02-17T09:40:58.430Z,31.47
2019-02-17T09:43:06.405Z,33.43
2019-02-17T09:45:17.926Z,32.53
2019-02-17T09:47:24.800Z,30.77
2019-02-17T09:49:32.247Z,26.23
2019-02-17T09:51:40.593Z,34.33
2019-02-17T09:53:47.719Z,29.70
2019-02-17T09:55:55.198Z,27.97
2019-02-17T09:58:02.417Z,35.33
2019-02-17T10:00:17.142Z,31.40
2019-02-17T10:02:26.627Z,35.47
2019-02-17T10:04:33.168Z,26.27
2019-02-17T10:06:40.094Z,36.10
2019-02-17T10:08:47.637Z,30.93
2019-02-17T10:10:54.507Z,33.97
2019-02-17T10:13:01.633Z,31.50
2019-02-17T10:15:12.902Z,33.97
2019-02-17T10:17:21.770Z,43.10
2019-02-17T10:19:28.674Z,51.13
2019-02-17T10:21:35.844Z,37.83
2019-02-17T10:23:44.212Z,34.97
2019-02-17T10:25:56.392Z,35.50
2019-02-17T10:28:02.717Z,48.40
2019-02-17T10:30:15.647Z,35.60
2019-02-17T10:32:22.626Z,30.17
2019-02-17T10:34:29.793Z,34.43
2019-02-17T10:36:36.800Z,29.13
2019-02-17T10:38:43.667Z,25.53
2019-02-17T10:40:50.957Z,25.53
2019-02-17T10:42:59.637Z,23.10
2019-02-17T10:45:07.724Z,30.40
2019-02-17T10:47:16.071Z,34.63
2019-02-17T10:49:23.107Z,27.80
2019-02-17T10:51:30.237Z,32.87
2019-02-17T10:53:36.990Z,33.93
2019-02-17T10:55:43.866Z,34.37
2019-02-17T10:57:50.994Z,37.03
2019-02-17T10:59:58.150Z,43.10
2019-02-17T11:02:04.997Z,39.17
2019-02-17T11:04:11.966Z,35.43
2019-02-17T11:06:19.166Z,48.10
2019-02-17T11:08:26.227Z,34.97
2019-02-17T11:10:33.453Z,33.07
2019-02-17T11:12:40.910Z,31.43
2019-02-17T11:14:48.396Z,25.40
2019-02-17T11:16:55.686Z,24.90
2019-02-17T11:19:02.674Z,31.93
2019-02-17T11:21:09.855Z,44.40
2019-02-17T11:23:18.435Z,36.67
2019-02-17T11:25:25.408Z,30.53
2019-02-17T11:27:32.827Z,26.70
2019-02-17T11:29:41.616Z,31.10
2019-02-17T11:31:49.351Z,33.93
2019-02-17T11:33:56.054Z,25.13
2019-02-17T11:36:03.396Z,22.40
2019-02-17T11:38:10.644Z,22.70
2019-02-17T11:40:17.754Z,27.17
2019-02-17T11:42:24.944Z,25.40
2019-02-17T11:44:32.097Z,26.60
2019-02-17T11:46:39.346Z,26.50
2019-02-17T11:48:47.437Z,30.03
2019-02-17T11:50:54.383Z,33.70
2019-02-17T11:53:01.405Z,196.80
2019-02-17T11:55:12.157Z,328.50
2019-02-17T11:57:19.008Z,54.93
2019-02-17T11:59:26.417Z,176.97
2019-02-17T12:01:33.456Z,33.90
2019-02-17T12:03:40.366Z,27.90
2019-02-17T12:05:47.525Z,27.83
2019-02-17T12:07:54.515Z,34.17
2019-02-17T12:10:02.107Z,22.90
2019-02-17T12:12:09.526Z,36.83
2019-02-17T12:14:16.636Z,33.60
2019-02-17T12:16:25.567Z,26.63
2019-02-17T12:18:36.982Z,23.10
2019-02-17T12:20:58.453Z,19.30
2019-02-17T12:23:10.443Z,26.67
2019-02-17T12:25:18.172Z,22.00
2019-02-17T12:27:30.157Z,27.00
2019-02-17T12:29:39.137Z,21.47
2019-02-17T12:31:47.024Z,29.20
2019-02-17T12:33:54.307Z,20.87
2019-02-17T12:36:02.646Z,23.40
2019-02-17T12:38:09.897Z,26.93
2019-02-17T12:40:17.058Z,26.17
2019-02-17T12:42:23.946Z,22.40
2019-02-17T12:44:31.109Z,19.20
2019-02-17T12:46:38.506Z,27.40
2019-02-17T12:48:46.078Z,10.97
2019-02-17T12:50:53.117Z,12.13
2019-02-17T12:53:00.865Z,9.27
2019-02-17T12:55:09.877Z,11.67
2019-02-17T12:57:17.136Z,14.97
2019-02-17T12:59:25.707Z,10.40
2019-02-17T13:01:32.683Z,11.13
2019-02-17T13:03:41.036Z,11.73
2019-02-17T13:05:48.067Z,15.03
2019-02-17T13:07:55.117Z,13.03
2019-02-17T13:10:01.996Z,10.07
2019-02-17T13:12:09.346Z,9.93
2019-02-17T13:14:16.469Z,10.03
2019-02-17T13:16:27.362Z,11.70
2019-02-17T13:18:34.256Z,12.50
2019-02-17T13:20:41.287Z,10.17
2019-02-17T13:22:48.576Z,14.63
2019-02-17T13:24:55.705Z,11.17
2019-02-17T13:27:03.199Z,11.60
2019-02-17T13:29:10.527Z,9.10
2019-02-17T13:31:17.461Z,13.80
2019-02-17T13:33:24.259Z,15.10
2019-02-17T13:35:31.148Z,19.13
2019-02-17T13:37:38.237Z,12.53
2019-02-17T13:39:46.798Z,15.57
2019-02-17T13:41:53.636Z,11.07
2019-02-17T13:44:00.436Z,15.37
2019-02-17T13:46:07.484Z,14.93
2019-02-17T13:48:15.357Z,12.80
2019-02-17T13:50:24.515Z,9.60
2019-02-17T13:52:32.076Z,14.77
2019-02-17T13:54:39.734Z,12.93
2019-02-17T13:56:46.864Z,11.03
2019-02-17T13:58:54.274Z,9.20
2019-02-17T14:01:02.023Z,11.53
2019-02-17T14:03:08.997Z,17.73
2019-02-17T14:05:16.476Z,15.60
2019-02-17T14:07:23.961Z,14.83
2019-02-17T14:09:32.222Z,10.80
2019-02-17T14:11:40.686Z,11.67
2019-02-17T14:13:47.813Z,17.00
2019-02-17T14:15:54.681Z,16.13
2019-02-17T14:18:04.244Z,16.83
2019-02-17T14:20:12.637Z,13.90
2019-02-17T14:22:19.446Z,17.77
2019-02-17T14:24:26.985Z,17.97
2019-02-17T14:26:34.753Z,15.83
2019-02-17T14:28:41.873Z,17.73
2019-02-17T14:30:48.846Z,18.63
2019-02-17T14:32:56.317Z,13.37
2019-02-17T14:35:05.087Z,15.73
2019-02-17T14:37:13.428Z,20.30
2019-02-17T14:39:26.545Z,12.80
2019-02-17T14:41:34.574Z,17.43
2019-02-17T14:43:41.736Z,16.43
2019-02-17T14:45:48.728Z,19.30
2019-02-17T14:47:55.816Z,16.47
2019-02-17T14:50:03.566Z,16.30
2019-02-17T14:52:11.566Z,13.30
2019-02-17T14:54:18.933Z,11.60
2019-02-17T14:56:25.681Z,19.60
2019-02-17T14:58:32.656Z,12.70
2019-02-17T15:00:39.624Z,19.37
2019-02-17T15:02:48.135Z,13.37
2019-02-17T15:04:55.216Z,13.43
2019-02-17T15:07:02.794Z,14.13
2019-02-17T15:09:11.197Z,15.93
2019-02-17T15:11:18.476Z,15.17
2019-02-17T15:13:25.740Z,11.50
2019-02-17T15:15:32.764Z,12.93
2019-02-17T15:17:40.037Z,15.20
2019-02-17T15:19:47.550Z,14.57
2019-02-17T15:21:55.011Z,13.73
2019-02-17T15:24:01.997Z,16.60
2019-02-17T15:26:09.323Z,14.53
2019-02-17T15:28:16.146Z,15.17
2019-02-17T15:30:23.333Z,16.43
2019-02-17T15:32:30.456Z,18.50
2019-02-17T15:34:37.998Z,13.33
2019-02-17T15:36:45.953Z,16.33
2019-02-17T15:38:53.284Z,16.07
2019-02-17T15:41:00.967Z,17.93
2019-02-17T15:43:08.927Z,15.37
2019-02-17T15:45:16.586Z,12.37
2019-02-17T15:47:23.566Z,18.47
2019-02-17T15:49:30.676Z,16.70
2019-02-17T15:51:38.628Z,17.40
2019-02-17T15:53:46.242Z,14.87
2019-02-17T15:55:53.517Z,16.70
2019-02-17T15:58:00.726Z,16.67
2019-02-17T16:00:18.313Z,12.77
2019-02-17T16:02:26.006Z,16.50
2019-02-17T16:04:34.007Z,16.37
2019-02-17T16:06:42.987Z,18.13
2019-02-17T16:08:52.254Z,19.77
2019-02-17T16:10:59.458Z,15.57
2019-02-17T16:13:06.988Z,16.97
2019-02-17T16:15:18.398Z,48.47
2019-02-17T16:17:25.704Z,14.43
2019-02-17T16:19:32.777Z,14.80
2019-02-17T16:21:40.094Z,20.57
2019-02-17T16:23:47.991Z,22.50
2019-02-17T16:26:15.932Z,13.03
2019-02-17T16:28:23.527Z,48.20
2019-02-17T16:30:31.014Z,16.00
2019-02-17T16:32:39.037Z,13.87
2019-02-17T16:34:46.227Z,21.67
2019-02-17T16:36:53.509Z,58.13
2019-02-17T16:39:00.878Z,19.63
2019-02-17T16:41:09.684Z,43.23
2019-02-17T16:43:17.070Z,17.90
2019-02-17T16:45:24.236Z,109.33
2019-02-17T16:47:31.947Z,19.90
2019-02-17T16:49:39.595Z,15.47
2019-02-17T16:51:47.177Z,15.10
2019-02-17T16:53:54.436Z,16.50
2019-02-17T16:56:01.707Z,16.17
2019-02-17T16:58:09.536Z,15.57
2019-02-17T17:00:22.326Z,16.70
2019-02-17T17:02:30.376Z,16.03
2019-02-17T17:04:47.880Z,10.80
2019-02-17T17:06:47.988Z,20.40
2019-02-17T17:08:55.266Z,16.70
2019-02-17T17:11:02.626Z,16.77
2019-02-17T17:13:11.344Z,19.93
2019-02-17T17:15:19.277Z,22.93
2019-02-17T17:17:26.596Z,37.23
2019-02-17T17:19:33.806Z,37.03
2019-02-17T17:21:43.014Z,28.73
2019-02-17T17:23:50.176Z,30.97
2019-02-17T17:25:57.775Z,31.77
2019-02-17T17:28:05.124Z,21.93
2019-02-17T17:30:20.206Z,17.27
2019-02-17T17:32:29.517Z,19.30
2019-02-17T17:34:38.397Z,17.70
2019-02-17T17:36:46.417Z,21.17
2019-02-17T17:38:53.607Z,18.23
2019-02-17T17:41:01.057Z,14.27
2019-02-17T17:43:09.737Z,16.43
2019-02-17T17:45:19.963Z,21.00
2019-02-17T17:47:27.257Z,22.30
2019-02-17T17:49:34.447Z,18.00
2019-02-17T17:51:42.106Z,19.80
2019-02-17T17:53:49.406Z,22.63
2019-02-17T17:55:56.517Z,23.00
2019-02-17T17:58:04.037Z,29.07
2019-02-17T18:00:21.207Z,24.80
2019-02-17T18:02:28.874Z,22.97
2019-02-17T18:04:36.173Z,24.27
2019-02-17T18:06:43.643Z,24.97
2019-02-17T18:08:51.193Z,26.23
2019-02-17T18:10:58.508Z,29.73
2019-02-17T18:13:05.917Z,52.53
2019-02-17T18:15:19.155Z,52.80
2019-02-17T18:17:26.682Z,54.20
2019-02-17T18:19:33.797Z,46.53
2019-02-17T18:21:41.489Z,31.63
2019-02-17T18:23:48.789Z,29.87
2019-02-17T18:25:56.056Z,26.07
2019-02-17T18:28:03.864Z,27.47
2019-02-17T18:30:21.520Z,24.57
2019-02-17T18:32:30.314Z,23.07
2019-02-17T18:34:37.515Z,18.13
2019-02-17T18:36:46.207Z,20.00
2019-02-17T18:38:54.816Z,23.07
2019-02-17T18:41:02.264Z,27.07
2019-02-17T18:43:09.597Z,36.07
2019-02-17T18:45:17.770Z,23.07
2019-02-17T18:47:25.951Z,30.70
2019-02-17T18:49:33.464Z,30.87
2019-02-17T18:51:41.800Z,32.93
2019-02-17T18:53:50.944Z,27.53
2019-02-17T18:55:58.185Z,25.30
2019-02-17T18:58:05.995Z,27.50
2019-02-17T19:00:26.052Z,28.07
2019-02-17T19:02:33.220Z,23.17
2019-02-17T19:04:40.920Z,28.57
2019-02-17T19:06:48.673Z,27.27
2019-02-17T19:08:56.767Z,35.40
2019-02-17T19:11:04.290Z,36.03
2019-02-17T19:13:11.963Z,29.53
2019-02-17T19:15:23.469Z,31.93
2019-02-17T19:17:51.201Z,36.03
2019-02-17T19:19:58.519Z,32.70
2019-02-17T19:22:05.789Z,34.70
2019-02-17T19:24:13.118Z,27.63
2019-02-17T19:26:20.360Z,25.70
2019-02-17T19:28:27.628Z,23.40
2019-02-17T19:30:35.021Z,19.73
2019-02-17T19:32:42.111Z,25.33
2019-02-17T19:34:49.369Z,22.87
2019-02-17T19:36:57.100Z,23.63
2019-02-17T19:39:06.412Z,21.87
2019-02-17T19:41:14.280Z,16.60
2019-02-17T19:43:22.042Z,22.47
2019-02-17T19:45:29.555Z,25.40
2019-02-17T19:47:37.202Z,21.33
2019-02-17T19:49:44.753Z,27.40
2019-02-17T19:51:52.316Z,24.93
2019-02-17T19:53:59.720Z,19.10
2019-02-17T19:56:07.533Z,18.03
2019-02-17T19:58:14.942Z,24.33
2019-02-17T20:00:25.173Z,24.90
2019-02-17T20:02:33.974Z,23.67
2019-02-17T20:04:43.194Z,24.87
2019-02-17T20:06:50.754Z,65.37
2019-02-17T20:08:58.252Z,77.50
2019-02-17T20:11:05.760Z,102.30
2019-02-17T20:13:13.534Z,39.47
2019-02-17T20:15:22.353Z,70.20
2019-02-17T20:17:30.361Z,116.83
2019-02-17T20:19:37.772Z,169.20
2019-02-17T20:21:45.156Z,100.63
2019-02-17T20:23:52.853Z,159.00
2019-02-17T20:26:00.112Z,118.77
2019-02-17T20:28:07.624Z,108.93
2019-02-17T20:30:16.567Z,82.13
2019-02-17T20:32:23.881Z,47.77
2019-02-17T20:34:31.370Z,39.07
2019-02-17T20:36:38.540Z,36.73
2019-02-17T20:38:45.848Z,39.93
2019-02-17T20:40:55.053Z,44.30
2019-02-17T20:43:02.558Z,39.83
2019-02-17T20:45:12.344Z,44.33
2019-02-17T20:47:19.814Z,38.73
2019-02-17T20:49:27.189Z,31.63
2019-02-17T20:51:34.713Z,27.27
2019-02-17T20:53:43.302Z,27.27
2019-02-17T20:55:50.741Z,28.63
2019-02-17T20:57:57.933Z,24.73
2019-02-17T21:00:06.710Z,26.30
2019-02-17T21:02:13.854Z,27.00
2019-02-17T21:04:21.622Z,28.90
2019-02-17T21:06:29.329Z,24.70
2019-02-17T21:08:36.492Z,30.47
2019-02-17T21:10:43.992Z,28.27
2019-02-17T21:12:51.513Z,32.60
2019-02-17T21:14:59.182Z,29.13
2019-02-17T21:17:06.772Z,32.27
2019-02-17T21:19:14.052Z,31.60
2019-02-17T21:21:21.374Z,31.97
2019-02-17T21:23:28.856Z,30.50
2019-02-17T21:25:36.451Z,25.83
2019-02-17T21:27:43.923Z,26.60
2019-02-17T21:29:51.087Z,26.57
2019-02-17T21:31:58.259Z,27.67
2019-02-17T21:34:05.326Z,26.83
2019-02-17T21:36:22.545Z,32.03
2019-02-17T21:38:23.399Z,29.10
2019-02-17T21:40:30.876Z,29.37
2019-02-17T21:42:37.961Z,33.37
2019-02-17T21:44:44.842Z,29.70
2019-02-17T21:46:52.222Z,32.07
2019-02-17T21:48:59.311Z,33.80
2019-02-17T21:51:06.786Z,33.10
2019-02-17T21:53:20.585Z,27.13
2019-02-17T21:55:22.875Z,50.13
2019-02-17T21:57:30.164Z,46.00
2019-02-17T21:59:37.181Z,48.30
2019-02-17T22:01:44.282Z,51.17
2019-02-17T22:03:51.651Z,50.47
2019-02-17T22:05:58.652Z,115.10
2019-02-17T22:08:05.752Z,106.43
2019-02-17T22:10:20.757Z,89.33
2019-02-17T22:12:27.629Z,52.23
2019-02-17T22:14:35.871Z,41.80
2019-02-17T22:16:43.630Z,42.43
2019-02-17T22:18:50.707Z,56.63
2019-02-17T22:20:57.300Z,32.77
2019-02-17T22:23:04.130Z,42.80
2019-02-17T22:25:11.947Z,43.37
2019-02-17T22:27:18.778Z,40.07
2019-02-17T22:29:25.628Z,31.87
2019-02-17T22:31:32.478Z,38.93
2019-02-17T22:33:39.222Z,36.50
2019-02-17T22:35:46.218Z,40.83
2019-02-17T22:37:53.435Z,36.23
2019-02-17T22:40:00.838Z,43.33
2019-02-17T22:42:08.956Z,33.70
2019-02-17T22:44:16.328Z,36.50
2019-02-17T22:46:23.136Z,33.13
2019-02-17T22:48:30.038Z,32.13
2019-02-17T22:50:37.037Z,39.63
2019-02-17T22:52:46.544Z,39.97
2019-02-17T22:54:53.411Z,41.47
2019-02-17T22:57:00.609Z,41.00
2019-02-17T22:59:07.159Z,39.37
2019-02-17T23:01:16.247Z,41.70
2019-02-17T23:03:23.367Z,34.30
2019-02-17T23:05:30.318Z,44.80
2019-02-17T23:07:37.633Z,41.57
2019-02-17T23:09:44.593Z,37.23
2019-02-17T23:11:51.992Z,44.13
2019-02-17T23:13:59.378Z,46.10
2019-02-17T23:16:06.428Z,41.30
2019-02-17T23:18:14.584Z,43.50
2019-02-17T23:20:21.518Z,38.27
2019-02-17T23:22:28.977Z,46.67
2019-02-17T23:24:37.058Z,52.27
2019-02-17T23:26:44.216Z,58.03
2019-02-17T23:28:51.092Z,55.90
2019-02-17T23:30:58.660Z,52.33
2019-02-17T23:33:06.397Z,51.63
2019-02-17T23:35:13.900Z,47.07
2019-02-17T23:37:20.789Z,55.43
2019-02-17T23:39:27.839Z,51.57
2019-02-17T23:41:35.507Z,56.77
2019-02-17T23:43:42.605Z,51.60
2019-02-17T23:45:50.851Z,55.87
2019-02-17T23:47:59.917Z,59.07
2019-02-17T23:50:09.227Z,54.93
2019-02-17T23:52:16.524Z,66.90
2019-02-17T23:54:23.700Z,52.40
2019-02-17T23:56:32.141Z,55.30
2019-02-17T23:58:39.200Z,59.87
